sensor_id;sensor_type;location;lat;lon;timestamp;P1;durP1;ratioP1;P2;durP2;ratioP2
10347;SDS011;5220;43.192;23.284;2023-05-08T00:01:22;4.13;;;3.58;;
10347;SDS011;5220;43.192;23.284;2023-05-08T00:03:50;4.90;;;3.67;;
10347;SDS011;5220;43.192;23.284;2023-05-08T00:06:17;4.32;;;3.17;;
10347;SDS011;5220;43.192;23.284;2023-05-08T00:08:45;3.70;;;3.38;;
10347;SDS011;5220;43.192;23.284;2023-05-08T00:11:12;3.75;;;3.25;;
10347;SDS011;5220;43.192;23.284;2023-05-08T00:13:38;3.42;;;3.13;;
10347;SDS011;5220;43.192;23.284;2023-05-08T00:16:06;5.03;;;3.25;;
10347;SDS011;5220;43.192;23.284;2023-05-08T00:18:35;7.13;;;3.80;;
10347;SDS011;5220;43.192;23.284;2023-05-08T00:21:02;11.15;;;3.88;;
10347;SDS011;5220;43.192;23.284;2023-05-08T00:23:29;4.55;;;3.03;;
10347;SDS011;5220;43.192;23.284;2023-05-08T00:25:57;5.35;;;3.38;;
10347;SDS011;5220;43.192;23.284;2023-05-08T00:28:24;3.42;;;3.13;;
10347;SDS011;5220;43.192;23.284;2023-05-08T00:30:51;6.18;;;3.20;;
10347;SDS011;5220;43.192;23.284;2023-05-08T00:33:18;3.88;;;3.45;;
10347;SDS011;5220;43.192;23.284;2023-05-08T00:35:44;3.83;;;3.00;;
10347;SDS011;5220;43.192;23.284;2023-05-08T00:38:11;3.83;;;3.45;;
10347;SDS011;5220;43.192;23.284;2023-05-08T00:40:38;5.10;;;3.55;;
10347;SDS011;5220;43.192;23.284;2023-05-08T00:43:06;3.75;;;3.35;;
10347;SDS011;5220;43.192;23.284;2023-05-08T00:45:35;3.75;;;3.30;;
10347;SDS011;5220;43.192;23.284;2023-05-08T00:48:04;3.65;;;3.30;;
10347;SDS011;5220;43.192;23.284;2023-05-08T00:50:32;4.53;;;3.47;;
10347;SDS011;5220;43.192;23.284;2023-05-08T00:52:59;3.70;;;3.33;;
10347;SDS011;5220;43.192;23.284;2023-05-08T00:55:28;5.25;;;3.45;;
10347;SDS011;5220;43.192;23.284;2023-05-08T00:57:55;4.10;;;3.63;;
10347;SDS011;5220;43.192;23.284;2023-05-08T01:00:24;4.50;;;3.38;;
10347;SDS011;5220;43.192;23.284;2023-05-08T01:02:50;4.65;;;3.78;;
10347;SDS011;5220;43.192;23.284;2023-05-08T01:05:17;6.15;;;3.40;;
10347;SDS011;5220;43.192;23.284;2023-05-08T01:07:44;4.57;;;3.75;;
10347;SDS011;5220;43.192;23.284;2023-05-08T01:10:11;5.88;;;3.55;;
10347;SDS011;5220;43.192;23.284;2023-05-08T01:12:43;5.57;;;3.35;;
10347;SDS011;5220;43.192;23.284;2023-05-08T01:15:20;3.95;;;3.42;;
10347;SDS011;5220;43.192;23.284;2023-05-08T01:17:56;3.72;;;3.42;;
10347;SDS011;5220;43.192;23.284;2023-05-08T01:20:44;5.60;;;3.70;;
10347;SDS011;5220;43.192;23.284;2023-05-08T01:23:31;3.50;;;3.17;;
10347;SDS011;5220;43.192;23.284;2023-05-08T01:26:17;5.63;;;3.28;;
10347;SDS011;5220;43.192;23.284;2023-05-08T01:29:09;4.90;;;3.63;;
10347;SDS011;5220;43.192;23.284;2023-05-08T01:32:04;5.63;;;4.13;;
10347;SDS011;5220;43.192;23.284;2023-05-08T01:34:38;5.68;;;3.75;;
10347;SDS011;5220;43.192;23.284;2023-05-08T01:37:10;4.25;;;3.45;;
10347;SDS011;5220;43.192;23.284;2023-05-08T01:39:42;11.93;;;3.75;;
10347;SDS011;5220;43.192;23.284;2023-05-08T01:42:12;5.38;;;3.83;;
10347;SDS011;5220;43.192;23.284;2023-05-08T01:44:48;3.65;;;3.30;;
10347;SDS011;5220;43.192;23.284;2023-05-08T01:47:23;6.32;;;3.58;;
10347;SDS011;5220;43.192;23.284;2023-05-08T01:49:54;3.58;;;3.08;;
10347;SDS011;5220;43.192;23.284;2023-05-08T01:52:27;8.25;;;3.38;;
10347;SDS011;5220;43.192;23.284;2023-05-08T01:55:00;6.88;;;3.53;;
10347;SDS011;5220;43.192;23.284;2023-05-08T01:57:30;4.53;;;3.15;;
10347;SDS011;5220;43.192;23.284;2023-05-08T02:00:00;3.80;;;3.30;;
10347;SDS011;5220;43.192;23.284;2023-05-08T02:02:30;4.20;;;3.80;;
10347;SDS011;5220;43.192;23.284;2023-05-08T02:04:59;3.53;;;3.25;;
10347;SDS011;5220;43.192;23.284;2023-05-08T02:07:29;4.18;;;3.00;;
10347;SDS011;5220;43.192;23.284;2023-05-08T02:09:58;4.22;;;3.53;;
10347;SDS011;5220;43.192;23.284;2023-05-08T02:12:27;6.70;;;3.63;;
10347;SDS011;5220;43.192;23.284;2023-05-08T02:14:56;4.95;;;4.10;;
10347;SDS011;5220;43.192;23.284;2023-05-08T02:17:25;3.70;;;3.35;;
10347;SDS011;5220;43.192;23.284;2023-05-08T02:19:54;3.85;;;3.50;;
10347;SDS011;5220;43.192;23.284;2023-05-08T02:22:21;5.72;;;3.75;;
10347;SDS011;5220;43.192;23.284;2023-05-08T02:24:49;4.10;;;3.70;;
10347;SDS011;5220;43.192;23.284;2023-05-08T02:27:19;5.07;;;3.50;;
10347;SDS011;5220;43.192;23.284;2023-05-08T02:29:48;3.72;;;3.42;;
10347;SDS011;5220;43.192;23.284;2023-05-08T02:32:17;4.43;;;3.72;;
10347;SDS011;5220;43.192;23.284;2023-05-08T02:34:46;5.43;;;3.88;;
10347;SDS011;5220;43.192;23.284;2023-05-08T02:37:15;3.60;;;3.22;;
10347;SDS011;5220;43.192;23.284;2023-05-08T02:39:45;5.40;;;3.55;;
10347;SDS011;5220;43.192;23.284;2023-05-08T02:42:13;4.00;;;3.60;;
10347;SDS011;5220;43.192;23.284;2023-05-08T02:44:40;3.60;;;3.30;;
10347;SDS011;5220;43.192;23.284;2023-05-08T02:47:11;4.22;;;3.40;;
10347;SDS011;5220;43.192;23.284;2023-05-08T02:49:45;3.65;;;3.10;;
10347;SDS011;5220;43.192;23.284;2023-05-08T02:52:18;3.67;;;3.38;;
10347;SDS011;5220;43.192;23.284;2023-05-08T02:54:50;3.60;;;3.30;;
10347;SDS011;5220;43.192;23.284;2023-05-08T02:57:26;4.47;;;3.70;;
10347;SDS011;5220;43.192;23.284;2023-05-08T02:59:59;5.60;;;3.80;;
10347;SDS011;5220;43.192;23.284;2023-05-08T03:02:32;3.72;;;3.40;;
10347;SDS011;5220;43.192;23.284;2023-05-08T03:05:04;5.13;;;3.72;;
10347;SDS011;5220;43.192;23.284;2023-05-08T03:07:41;4.55;;;3.00;;
10347;SDS011;5220;43.192;23.284;2023-05-08T03:10:10;4.72;;;3.35;;
10347;SDS011;5220;43.192;23.284;2023-05-08T03:12:41;4.40;;;4.00;;
10347;SDS011;5220;43.192;23.284;2023-05-08T03:15:11;3.67;;;3.30;;
10347;SDS011;5220;43.192;23.284;2023-05-08T03:17:43;6.03;;;3.30;;
10347;SDS011;5220;43.192;23.284;2023-05-08T03:20:14;5.13;;;3.17;;
10347;SDS011;5220;43.192;23.284;2023-05-08T03:22:44;3.50;;;3.20;;
10347;SDS011;5220;43.192;23.284;2023-05-08T03:25:13;7.20;;;5.90;;
10347;SDS011;5220;43.192;23.284;2023-05-08T03:27:44;17.42;;;11.98;;
10347;SDS011;5220;43.192;23.284;2023-05-08T03:30:11;12.90;;;9.52;;
10347;SDS011;5220;43.192;23.284;2023-05-08T03:32:39;12.75;;;9.73;;
10347;SDS011;5220;43.192;23.284;2023-05-08T03:35:08;10.02;;;9.00;;
10347;SDS011;5220;43.192;23.284;2023-05-08T03:37:35;7.43;;;6.72;;
10347;SDS011;5220;43.192;23.284;2023-05-08T03:40:05;6.40;;;4.90;;
10347;SDS011;5220;43.192;23.284;2023-05-08T03:42:33;6.18;;;5.65;;
10347;SDS011;5220;43.192;23.284;2023-05-08T03:45:00;3.70;;;3.40;;
10347;SDS011;5220;43.192;23.284;2023-05-08T03:47:28;3.90;;;3.60;;
10347;SDS011;5220;43.192;23.284;2023-05-08T03:49:57;3.70;;;3.40;;
10347;SDS011;5220;43.192;23.284;2023-05-08T03:52:25;3.35;;;3.03;;
10347;SDS011;5220;43.192;23.284;2023-05-08T03:54:52;3.60;;;3.30;;
10347;SDS011;5220;43.192;23.284;2023-05-08T03:57:20;4.70;;;3.90;;
10347;SDS011;5220;43.192;23.284;2023-05-08T03:59:57;4.63;;;3.83;;
10347;SDS011;5220;43.192;23.284;2023-05-08T04:02:32;6.68;;;3.40;;
10347;SDS011;5220;43.192;23.284;2023-05-08T04:05:09;4.15;;;3.28;;
10347;SDS011;5220;43.192;23.284;2023-05-08T04:07:46;3.58;;;3.28;;
10347;SDS011;5220;43.192;23.284;2023-05-08T04:10:19;4.82;;;3.35;;
10347;SDS011;5220;43.192;23.284;2023-05-08T04:12:53;4.07;;;3.67;;
10347;SDS011;5220;43.192;23.284;2023-05-08T04:15:25;5.00;;;3.85;;
10347;SDS011;5220;43.192;23.284;2023-05-08T04:17:56;5.22;;;3.63;;
10347;SDS011;5220;43.192;23.284;2023-05-08T04:20:25;3.90;;;3.40;;
10347;SDS011;5220;43.192;23.284;2023-05-08T04:22:54;4.38;;;3.33;;
10347;SDS011;5220;43.192;23.284;2023-05-08T04:25:23;3.47;;;3.17;;
10347;SDS011;5220;43.192;23.284;2023-05-08T04:27:52;4.90;;;3.10;;
10347;SDS011;5220;43.192;23.284;2023-05-08T04:30:21;5.85;;;3.60;;
10347;SDS011;5220;43.192;23.284;2023-05-08T04:32:49;4.40;;;3.30;;
10347;SDS011;5220;43.192;23.284;2023-05-08T04:35:17;5.18;;;3.65;;
10347;SDS011;5220;43.192;23.284;2023-05-08T04:37:44;4.15;;;3.22;;
10347;SDS011;5220;43.192;23.284;2023-05-08T04:40:12;4.45;;;3.30;;
10347;SDS011;5220;43.192;23.284;2023-05-08T04:42:39;4.78;;;3.47;;
10347;SDS011;5220;43.192;23.284;2023-05-08T04:45:09;4.25;;;3.40;;
10347;SDS011;5220;43.192;23.284;2023-05-08T04:47:36;3.55;;;3.17;;
10347;SDS011;5220;43.192;23.284;2023-05-08T04:50:02;3.85;;;3.40;;
10347;SDS011;5220;43.192;23.284;2023-05-08T04:52:30;3.45;;;3.20;;
10347;SDS011;5220;43.192;23.284;2023-05-08T04:54:56;3.88;;;3.13;;
10347;SDS011;5220;43.192;23.284;2023-05-08T04:57:23;3.50;;;3.20;;
10347;SDS011;5220;43.192;23.284;2023-05-08T04:59:50;3.95;;;3.20;;
10347;SDS011;5220;43.192;23.284;2023-05-08T05:02:18;6.70;;;3.45;;
10347;SDS011;5220;43.192;23.284;2023-05-08T05:04:45;6.28;;;3.05;;
10347;SDS011;5220;43.192;23.284;2023-05-08T05:07:11;6.20;;;3.88;;
10347;SDS011;5220;43.192;23.284;2023-05-08T05:09:38;6.57;;;3.58;;
10347;SDS011;5220;43.192;23.284;2023-05-08T05:12:05;4.47;;;3.22;;
10347;SDS011;5220;43.192;23.284;2023-05-08T05:14:33;3.53;;;3.22;;
10347;SDS011;5220;43.192;23.284;2023-05-08T05:16:59;5.78;;;3.33;;
10347;SDS011;5220;43.192;23.284;2023-05-08T05:19:28;3.83;;;3.53;;
10347;SDS011;5220;43.192;23.284;2023-05-08T05:21:55;5.93;;;4.70;;
10347;SDS011;5220;43.192;23.284;2023-05-08T05:24:22;8.10;;;4.90;;
10347;SDS011;5220;43.192;23.284;2023-05-08T05:26:49;6.30;;;4.45;;
10347;SDS011;5220;43.192;23.284;2023-05-08T05:29:16;12.15;;;7.93;;
10347;SDS011;5220;43.192;23.284;2023-05-08T05:31:43;9.27;;;7.78;;
10347;SDS011;5220;43.192;23.284;2023-05-08T05:34:10;9.10;;;5.78;;
10347;SDS011;5220;43.192;23.284;2023-05-08T05:36:39;4.30;;;3.92;;
10347;SDS011;5220;43.192;23.284;2023-05-08T05:39:05;4.93;;;3.45;;
10347;SDS011;5220;43.192;23.284;2023-05-08T05:41:32;4.72;;;3.33;;
10347;SDS011;5220;43.192;23.284;2023-05-08T05:44:00;7.03;;;3.50;;
10347;SDS011;5220;43.192;23.284;2023-05-08T05:46:27;3.35;;;3.00;;
10347;SDS011;5220;43.192;23.284;2023-05-08T05:48:56;8.05;;;3.45;;
10347;SDS011;5220;43.192;23.284;2023-05-08T05:51:23;3.92;;;3.60;;
10347;SDS011;5220;43.192;23.284;2023-05-08T05:53:53;3.90;;;3.22;;
10347;SDS011;5220;43.192;23.284;2023-05-08T05:56:21;5.90;;;3.40;;
10347;SDS011;5220;43.192;23.284;2023-05-08T05:58:48;6.88;;;3.40;;
10347;SDS011;5220;43.192;23.284;2023-05-08T06:01:16;3.80;;;3.50;;
10347;SDS011;5220;43.192;23.284;2023-05-08T06:03:43;6.22;;;3.38;;
10347;SDS011;5220;43.192;23.284;2023-05-08T06:06:10;3.85;;;3.35;;
10347;SDS011;5220;43.192;23.284;2023-05-08T06:08:36;3.72;;;3.10;;
10347;SDS011;5220;43.192;23.284;2023-05-08T06:11:05;3.47;;;3.17;;
10347;SDS011;5220;43.192;23.284;2023-05-08T06:13:32;3.00;;;2.80;;
10347;SDS011;5220;43.192;23.284;2023-05-08T06:15:59;3.70;;;3.22;;
10347;SDS011;5220;43.192;23.284;2023-05-08T06:18:26;3.60;;;3.30;;
10347;SDS011;5220;43.192;23.284;2023-05-08T06:20:56;5.43;;;2.60;;
10347;SDS011;5220;43.192;23.284;2023-05-08T06:23:24;6.35;;;2.75;;
10347;SDS011;5220;43.192;23.284;2023-05-08T06:25:51;4.45;;;3.22;;
10347;SDS011;5220;43.192;23.284;2023-05-08T06:28:19;4.55;;;2.50;;
10347;SDS011;5220;43.192;23.284;2023-05-08T06:30:46;2.90;;;2.70;;
10347;SDS011;5220;43.192;23.284;2023-05-08T06:33:13;2.92;;;2.63;;
10347;SDS011;5220;43.192;23.284;2023-05-08T06:35:41;6.35;;;2.63;;
10347;SDS011;5220;43.192;23.284;2023-05-08T06:38:11;3.60;;;2.90;;
10347;SDS011;5220;43.192;23.284;2023-05-08T06:40:40;7.45;;;3.03;;
10347;SDS011;5220;43.192;23.284;2023-05-08T06:43:07;2.95;;;2.75;;
10347;SDS011;5220;43.192;23.284;2023-05-08T06:45:35;3.67;;;2.95;;
10347;SDS011;5220;43.192;23.284;2023-05-08T06:48:02;3.10;;;2.80;;
10347;SDS011;5220;43.192;23.284;2023-05-08T06:50:29;3.30;;;2.78;;
10347;SDS011;5220;43.192;23.284;2023-05-08T06:52:56;3.55;;;3.15;;
10347;SDS011;5220;43.192;23.284;2023-05-08T06:55:23;3.65;;;2.88;;
10347;SDS011;5220;43.192;23.284;2023-05-08T06:57:49;3.40;;;2.92;;
10347;SDS011;5220;43.192;23.284;2023-05-08T07:00:16;5.10;;;3.03;;
10347;SDS011;5220;43.192;23.284;2023-05-08T07:02:44;3.50;;;3.20;;
10347;SDS011;5220;43.192;23.284;2023-05-08T07:05:11;4.18;;;3.38;;
10347;SDS011;5220;43.192;23.284;2023-05-08T07:07:38;5.38;;;3.13;;
10347;SDS011;5220;43.192;23.284;2023-05-08T07:10:06;3.67;;;3.17;;
10347;SDS011;5220;43.192;23.284;2023-05-08T07:12:33;5.38;;;3.30;;
10347;SDS011;5220;43.192;23.284;2023-05-08T07:15:00;4.20;;;3.80;;
10347;SDS011;5220;43.192;23.284;2023-05-08T07:17:27;3.58;;;3.25;;
10347;SDS011;5220;43.192;23.284;2023-05-08T07:19:56;6.07;;;3.67;;
10347;SDS011;5220;43.192;23.284;2023-05-08T07:22:22;5.03;;;3.38;;
10347;SDS011;5220;43.192;23.284;2023-05-08T07:24:49;5.38;;;4.63;;
10347;SDS011;5220;43.192;23.284;2023-05-08T07:27:16;8.68;;;4.72;;
10347;SDS011;5220;43.192;23.284;2023-05-08T07:29:42;8.27;;;4.35;;
10347;SDS011;5220;43.192;23.284;2023-05-08T07:32:09;4.68;;;3.92;;
10347;SDS011;5220;43.192;23.284;2023-05-08T07:34:36;4.20;;;3.58;;
10347;SDS011;5220;43.192;23.284;2023-05-08T07:37:04;4.45;;;3.90;;
10347;SDS011;5220;43.192;23.284;2023-05-08T07:39:31;4.57;;;3.75;;
10347;SDS011;5220;43.192;23.284;2023-05-08T07:41:57;4.05;;;3.65;;
10347;SDS011;5220;43.192;23.284;2023-05-08T07:44:24;5.43;;;3.45;;
10347;SDS011;5220;43.192;23.284;2023-05-08T07:46:51;4.63;;;3.53;;
10347;SDS011;5220;43.192;23.284;2023-05-08T07:49:17;5.43;;;2.92;;
10347;SDS011;5220;43.192;23.284;2023-05-08T07:51:44;6.38;;;3.17;;
10347;SDS011;5220;43.192;23.284;2023-05-08T07:54:12;5.57;;;3.53;;
10347;SDS011;5220;43.192;23.284;2023-05-08T07:56:39;8.10;;;3.75;;
10347;SDS011;5220;43.192;23.284;2023-05-08T07:59:05;5.22;;;3.30;;
10347;SDS011;5220;43.192;23.284;2023-05-08T08:01:32;3.60;;;3.25;;
10347;SDS011;5220;43.192;23.284;2023-05-08T08:03:59;4.18;;;3.78;;
10347;SDS011;5220;43.192;23.284;2023-05-08T08:06:26;10.95;;;4.10;;
10347;SDS011;5220;43.192;23.284;2023-05-08T08:08:52;3.80;;;3.47;;
10347;SDS011;5220;43.192;23.284;2023-05-08T08:11:20;7.88;;;4.00;;
10347;SDS011;5220;43.192;23.284;2023-05-08T08:13:47;4.30;;;3.88;;
10347;SDS011;5220;43.192;23.284;2023-05-08T08:16:14;6.20;;;4.47;;
10347;SDS011;5220;43.192;23.284;2023-05-08T08:18:40;5.35;;;3.50;;
10347;SDS011;5220;43.192;23.284;2023-05-08T08:21:07;6.13;;;3.72;;
10347;SDS011;5220;43.192;23.284;2023-05-08T08:23:34;5.35;;;4.00;;
10347;SDS011;5220;43.192;23.284;2023-05-08T08:26:00;6.40;;;4.20;;
10347;SDS011;5220;43.192;23.284;2023-05-08T08:28:28;5.70;;;4.72;;
10347;SDS011;5220;43.192;23.284;2023-05-08T08:30:56;4.68;;;4.10;;
10347;SDS011;5220;43.192;23.284;2023-05-08T08:33:22;4.60;;;4.20;;
10347;SDS011;5220;43.192;23.284;2023-05-08T08:35:49;6.75;;;4.57;;
10347;SDS011;5220;43.192;23.284;2023-05-08T08:38:16;4.55;;;3.95;;
10347;SDS011;5220;43.192;23.284;2023-05-08T08:40:42;5.00;;;3.63;;
10347;SDS011;5220;43.192;23.284;2023-05-08T08:43:09;19.27;;;10.75;;
10347;SDS011;5220;43.192;23.284;2023-05-08T08:45:37;4.25;;;3.75;;
10347;SDS011;5220;43.192;23.284;2023-05-08T08:48:05;4.82;;;3.33;;
10347;SDS011;5220;43.192;23.284;2023-05-08T08:50:36;7.10;;;3.70;;
10347;SDS011;5220;43.192;23.284;2023-05-08T08:53:09;7.05;;;3.83;;
10347;SDS011;5220;43.192;23.284;2023-05-08T08:55:42;9.80;;;3.80;;
10347;SDS011;5220;43.192;23.284;2023-05-08T08:58:13;4.45;;;3.67;;
10347;SDS011;5220;43.192;23.284;2023-05-08T09:00:44;4.47;;;3.55;;
10347;SDS011;5220;43.192;23.284;2023-05-08T09:03:12;4.22;;;3.83;;
10347;SDS011;5220;43.192;23.284;2023-05-08T09:05:39;5.53;;;4.75;;
10347;SDS011;5220;43.192;23.284;2023-05-08T09:08:06;4.82;;;4.07;;
10347;SDS011;5220;43.192;23.284;2023-05-08T09:10:34;6.20;;;3.70;;
10347;SDS011;5220;43.192;23.284;2023-05-08T09:13:02;4.03;;;3.58;;
10347;SDS011;5220;43.192;23.284;2023-05-08T09:15:30;6.28;;;4.45;;
10347;SDS011;5220;43.192;23.284;2023-05-08T09:17:59;7.93;;;5.80;;
10347;SDS011;5220;43.192;23.284;2023-05-08T09:20:26;18.48;;;15.65;;
10347;SDS011;5220;43.192;23.284;2023-05-08T09:22:53;6.40;;;5.47;;
10347;SDS011;5220;43.192;23.284;2023-05-08T09:25:20;11.05;;;8.90;;
10347;SDS011;5220;43.192;23.284;2023-05-08T09:27:47;8.73;;;7.93;;
10347;SDS011;5220;43.192;23.284;2023-05-08T09:30:13;5.47;;;4.25;;
10347;SDS011;5220;43.192;23.284;2023-05-08T09:32:41;4.53;;;4.13;;
10347;SDS011;5220;43.192;23.284;2023-05-08T09:35:10;4.25;;;3.85;;
10347;SDS011;5220;43.192;23.284;2023-05-08T09:37:37;6.03;;;4.78;;
10347;SDS011;5220;43.192;23.284;2023-05-08T09:40:12;10.73;;;4.20;;
10347;SDS011;5220;43.192;23.284;2023-05-08T09:42:40;8.30;;;7.55;;
10347;SDS011;5220;43.192;23.284;2023-05-08T09:45:07;6.53;;;5.85;;
10347;SDS011;5220;43.192;23.284;2023-05-08T09:47:35;6.55;;;5.43;;
10347;SDS011;5220;43.192;23.284;2023-05-08T09:50:04;8.50;;;6.88;;
10347;SDS011;5220;43.192;23.284;2023-05-08T09:52:35;7.30;;;4.10;;
10347;SDS011;5220;43.192;23.284;2023-05-08T09:55:03;7.65;;;3.63;;
10347;SDS011;5220;43.192;23.284;2023-05-08T09:57:32;7.28;;;4.72;;
10347;SDS011;5220;43.192;23.284;2023-05-08T10:00:03;7.90;;;4.95;;
10347;SDS011;5220;43.192;23.284;2023-05-08T10:02:31;6.68;;;4.47;;
10347;SDS011;5220;43.192;23.284;2023-05-08T10:04:58;5.68;;;4.50;;
10347;SDS011;5220;43.192;23.284;2023-05-08T10:07:29;5.55;;;3.65;;
10347;SDS011;5220;43.192;23.284;2023-05-08T10:09:58;7.43;;;5.95;;
10347;SDS011;5220;43.192;23.284;2023-05-08T10:12:26;4.30;;;3.75;;
10347;SDS011;5220;43.192;23.284;2023-05-08T10:14:53;7.68;;;4.32;;
10347;SDS011;5220;43.192;23.284;2023-05-08T10:17:24;7.50;;;4.45;;
10347;SDS011;5220;43.192;23.284;2023-05-08T10:19:54;8.73;;;6.55;;
10347;SDS011;5220;43.192;23.284;2023-05-08T10:22:25;26.73;;;7.00;;
10347;SDS011;5220;43.192;23.284;2023-05-08T10:24:55;4.90;;;3.53;;
10347;SDS011;5220;43.192;23.284;2023-05-08T10:27:27;7.55;;;3.92;;
10347;SDS011;5220;43.192;23.284;2023-05-08T10:30:00;5.03;;;3.88;;
10347;SDS011;5220;43.192;23.284;2023-05-08T10:32:34;12.48;;;4.10;;
10347;SDS011;5220;43.192;23.284;2023-05-08T10:35:07;4.28;;;3.50;;
10347;SDS011;5220;43.192;23.284;2023-05-08T10:37:36;7.65;;;4.25;;
10347;SDS011;5220;43.192;23.284;2023-05-08T10:40:06;6.50;;;4.40;;
10347;SDS011;5220;43.192;23.284;2023-05-08T10:42:36;6.72;;;6.03;;
10347;SDS011;5220;43.192;23.284;2023-05-08T10:45:04;8.45;;;4.55;;
10347;SDS011;5220;43.192;23.284;2023-05-08T10:47:47;5.13;;;4.30;;
10347;SDS011;5220;43.192;23.284;2023-05-08T10:50:43;8.15;;;5.28;;
10347;SDS011;5220;43.192;23.284;2023-05-08T10:53:24;31.55;;;6.65;;
10347;SDS011;5220;43.192;23.284;2023-05-08T10:55:58;23.08;;;4.93;;
10347;SDS011;5220;43.192;23.284;2023-05-08T10:58:30;5.70;;;4.28;;
10347;SDS011;5220;43.192;23.284;2023-05-08T11:01:14;128.55;;;13.00;;
10347;SDS011;5220;43.192;23.284;2023-05-08T11:03:45;54.13;;;9.00;;
10347;SDS011;5220;43.192;23.284;2023-05-08T11:06:14;29.80;;;6.47;;
10347;SDS011;5220;43.192;23.284;2023-05-08T11:08:45;24.20;;;6.10;;
10347;SDS011;5220;43.192;23.284;2023-05-08T11:11:23;68.03;;;8.75;;
10347;SDS011;5220;43.192;23.284;2023-05-08T11:14:08;47.08;;;7.30;;
10347;SDS011;5220;43.192;23.284;2023-05-08T11:19:29;8.90;;;5.40;;
10347;SDS011;5220;43.192;23.284;2023-05-08T11:25:00;7.95;;;5.20;;
10347;SDS011;5220;43.192;23.284;2023-05-08T11:27:40;13.52;;;5.90;;
10347;SDS011;5220;43.192;23.284;2023-05-08T11:30:45;10.75;;;5.32;;
10347;SDS011;5220;43.192;23.284;2023-05-08T11:33:15;5.90;;;5.28;;
10347;SDS011;5220;43.192;23.284;2023-05-08T11:35:46;6.22;;;5.60;;
10347;SDS011;5220;43.192;23.284;2023-05-08T11:38:19;6.82;;;5.07;;
10347;SDS011;5220;43.192;23.284;2023-05-08T11:40:48;6.75;;;5.45;;
10347;SDS011;5220;43.192;23.284;2023-05-08T11:43:28;6.68;;;5.38;;
10347;SDS011;5220;43.192;23.284;2023-05-08T11:46:11;7.03;;;5.32;;
10347;SDS011;5220;43.192;23.284;2023-05-08T11:48:40;8.25;;;6.18;;
10347;SDS011;5220;43.192;23.284;2023-05-08T11:51:08;7.25;;;5.30;;
10347;SDS011;5220;43.192;23.284;2023-05-08T11:53:35;9.38;;;6.32;;
10347;SDS011;5220;43.192;23.284;2023-05-08T11:56:02;11.23;;;7.40;;
10347;SDS011;5220;43.192;23.284;2023-05-08T11:58:29;30.10;;;19.70;;
10347;SDS011;5220;43.192;23.284;2023-05-08T12:00:56;10.75;;;8.18;;
10347;SDS011;5220;43.192;23.284;2023-05-08T12:03:25;11.88;;;7.00;;
10347;SDS011;5220;43.192;23.284;2023-05-08T12:05:55;7.57;;;6.85;;
10347;SDS011;5220;43.192;23.284;2023-05-08T12:08:23;14.85;;;8.25;;
10347;SDS011;5220;43.192;23.284;2023-05-08T12:10:50;11.77;;;7.90;;
10347;SDS011;5220;43.192;23.284;2023-05-08T12:13:18;7.85;;;7.05;;
10347;SDS011;5220;43.192;23.284;2023-05-08T12:15:46;7.32;;;6.57;;
10347;SDS011;5220;43.192;23.284;2023-05-08T12:18:14;9.25;;;7.43;;
10347;SDS011;5220;43.192;23.284;2023-05-08T12:20:43;11.48;;;8.27;;
10347;SDS011;5220;43.192;23.284;2023-05-08T12:23:10;8.52;;;7.35;;
10347;SDS011;5220;43.192;23.284;2023-05-08T12:25:38;8.05;;;6.82;;
10347;SDS011;5220;43.192;23.284;2023-05-08T12:28:05;9.27;;;7.43;;
10347;SDS011;5220;43.192;23.284;2023-05-08T12:30:32;11.02;;;7.88;;
10347;SDS011;5220;43.192;23.284;2023-05-08T12:33:00;9.63;;;6.88;;
10347;SDS011;5220;43.192;23.284;2023-05-08T12:35:28;10.30;;;7.50;;
10347;SDS011;5220;43.192;23.284;2023-05-08T12:38:00;9.18;;;6.40;;
10347;SDS011;5220;43.192;23.284;2023-05-08T12:40:28;7.72;;;6.75;;
10347;SDS011;5220;43.192;23.284;2023-05-08T12:42:58;8.75;;;6.70;;
10347;SDS011;5220;43.192;23.284;2023-05-08T12:45:27;9.82;;;6.47;;
10347;SDS011;5220;43.192;23.284;2023-05-08T12:47:57;7.53;;;6.30;;
10347;SDS011;5220;43.192;23.284;2023-05-08T12:50:25;25.13;;;7.40;;
10347;SDS011;5220;43.192;23.284;2023-05-08T12:52:51;9.07;;;7.13;;
10347;SDS011;5220;43.192;23.284;2023-05-08T12:55:20;27.05;;;8.23;;
10347;SDS011;5220;43.192;23.284;2023-05-08T12:57:48;14.77;;;7.70;;
10347;SDS011;5220;43.192;23.284;2023-05-08T13:00:16;11.00;;;7.63;;
10347;SDS011;5220;43.192;23.284;2023-05-08T13:02:52;15.20;;;7.88;;
10347;SDS011;5220;43.192;23.284;2023-05-08T13:05:20;7.72;;;6.60;;
10347;SDS011;5220;43.192;23.284;2023-05-08T13:07:48;13.05;;;9.18;;
10347;SDS011;5220;43.192;23.284;2023-05-08T13:10:15;15.77;;;11.30;;
10347;SDS011;5220;43.192;23.284;2023-05-08T13:12:44;14.50;;;9.32;;
10347;SDS011;5220;43.192;23.284;2023-05-08T13:15:11;22.88;;;18.65;;
10347;SDS011;5220;43.192;23.284;2023-05-08T13:17:39;20.65;;;18.42;;
10347;SDS011;5220;43.192;23.284;2023-05-08T13:20:06;11.75;;;9.15;;
10347;SDS011;5220;43.192;23.284;2023-05-08T13:22:35;16.52;;;10.82;;
10347;SDS011;5220;43.192;23.284;2023-05-08T13:25:02;9.68;;;8.68;;
10347;SDS011;5220;43.192;23.284;2023-05-08T13:27:29;13.35;;;9.60;;
10347;SDS011;5220;43.192;23.284;2023-05-08T13:29:57;10.60;;;9.45;;
10347;SDS011;5220;43.192;23.284;2023-05-08T13:32:23;25.88;;;23.23;;
10347;SDS011;5220;43.192;23.284;2023-05-08T13:34:50;8.75;;;7.95;;
10347;SDS011;5220;43.192;23.284;2023-05-08T13:37:17;10.43;;;8.80;;
10347;SDS011;5220;43.192;23.284;2023-05-08T13:39:43;11.63;;;10.05;;
10347;SDS011;5220;43.192;23.284;2023-05-08T13:42:12;14.75;;;9.52;;
10347;SDS011;5220;43.192;23.284;2023-05-08T13:44:38;12.45;;;7.70;;
10347;SDS011;5220;43.192;23.284;2023-05-08T13:47:07;9.75;;;8.77;;
10347;SDS011;5220;43.192;23.284;2023-05-08T13:49:35;8.23;;;7.15;;
10347;SDS011;5220;43.192;23.284;2023-05-08T13:52:02;8.20;;;7.32;;
10347;SDS011;5220;43.192;23.284;2023-05-08T13:54:28;13.10;;;9.50;;
10347;SDS011;5220;43.192;23.284;2023-05-08T13:56:55;11.02;;;8.27;;
10347;SDS011;5220;43.192;23.284;2023-05-08T13:59:22;10.43;;;7.07;;
10347;SDS011;5220;43.192;23.284;2023-05-08T14:01:49;6.45;;;5.57;;
10347;SDS011;5220;43.192;23.284;2023-05-08T14:04:17;10.02;;;6.05;;
10347;SDS011;5220;43.192;23.284;2023-05-08T14:06:44;10.85;;;6.18;;
10347;SDS011;5220;43.192;23.284;2023-05-08T14:09:11;9.25;;;6.30;;
10347;SDS011;5220;43.192;23.284;2023-05-08T14:11:37;11.48;;;6.70;;
10347;SDS011;5220;43.192;23.284;2023-05-08T14:14:04;10.05;;;6.43;;
10347;SDS011;5220;43.192;23.284;2023-05-08T14:16:31;10.20;;;6.55;;
10347;SDS011;5220;43.192;23.284;2023-05-08T14:18:58;7.97;;;5.70;;
10347;SDS011;5220;43.192;23.284;2023-05-08T14:21:26;7.30;;;6.10;;
10347;SDS011;5220;43.192;23.284;2023-05-08T14:23:53;10.77;;;6.65;;
10347;SDS011;5220;43.192;23.284;2023-05-08T14:26:20;7.80;;;6.32;;
10347;SDS011;5220;43.192;23.284;2023-05-08T14:28:46;10.40;;;8.25;;
10347;SDS011;5220;43.192;23.284;2023-05-08T14:31:13;10.25;;;8.48;;
10347;SDS011;5220;43.192;23.284;2023-05-08T14:33:40;8.70;;;7.45;;
10347;SDS011;5220;43.192;23.284;2023-05-08T14:36:07;8.95;;;6.65;;
10347;SDS011;5220;43.192;23.284;2023-05-08T14:38:35;11.25;;;6.60;;
10347;SDS011;5220;43.192;23.284;2023-05-08T14:41:02;8.75;;;6.18;;
10347;SDS011;5220;43.192;23.284;2023-05-08T14:43:29;9.77;;;6.70;;
10347;SDS011;5220;43.192;23.284;2023-05-08T14:45:55;7.65;;;6.20;;
10347;SDS011;5220;43.192;23.284;2023-05-08T14:48:22;9.02;;;7.95;;
10347;SDS011;5220;43.192;23.284;2023-05-08T14:50:49;12.80;;;8.07;;
10347;SDS011;5220;43.192;23.284;2023-05-08T14:53:16;9.45;;;8.30;;
10347;SDS011;5220;43.192;23.284;2023-05-08T14:55:44;15.13;;;9.63;;
10347;SDS011;5220;43.192;23.284;2023-05-08T14:58:10;14.77;;;8.93;;
10347;SDS011;5220;43.192;23.284;2023-05-08T15:00:37;12.90;;;9.15;;
10347;SDS011;5220;43.192;23.284;2023-05-08T15:03:04;12.20;;;8.85;;